sensor_id;sensor_type;location;lat;lon;timestamp;temperature;humidity
10828;DHT22;5467;59.334;13.512;2022-10-04T00:02:15;5.00;99.90
10828;DHT22;5467;59.334;13.512;2022-10-04T00:04:46;5.00;99.90
10828;DHT22;5467;59.334;13.512;2022-10-04T00:07:18;4.90;99.90
10828;DHT22;5467;59.334;13.512;2022-10-04T00:09:49;4.90;99.90
10828;DHT22;5467;59.334;13.512;2022-10-04T00:12:20;4.90;99.90
10828;DHT22;5467;59.334;13.512;2022-10-04T00:14:48;4.90;99.90
10828;DHT22;5467;59.334;13.512;2022-10-04T00:17:23;4.80;99.90
10828;DHT22;5467;59.334;13.512;2022-10-04T00:19:54;4.80;99.90
10828;DHT22;5467;59.334;13.512;2022-10-04T00:22:23;4.70;99.90
10828;DHT22;5467;59.334;13.512;2022-10-04T00:31:13;4.60;99.90
10828;DHT22;5467;59.334;13.512;2022-10-04T00:33:42;4.50;99.90
10828;DHT22;5467;59.334;13.512;2022-10-04T00:36:49;4.40;99.90
10828;DHT22;5467;59.334;13.512;2022-10-04T00:39:41;4.40;99.90
10828;DHT22;5467;59.334;13.512;2022-10-04T00:42:37;4.50;99.90
10828;DHT22;5467;59.334;13.512;2022-10-04T00:45:15;4.50;99.90
10828;DHT22;5467;59.334;13.512;2022-10-04T00:48:12;4.50;99.90
10828;DHT22;5467;59.334;13.512;2022-10-04T00:50:42;4.50;99.90
10828;DHT22;5467;59.334;13.512;2022-10-04T00:53:18;4.40;99.90
10828;DHT22;5467;59.334;13.512;2022-10-04T00:55:50;4.40;99.90
10828;DHT22;5467;59.334;13.512;2022-10-04T00:58:23;4.40;99.90
10828;DHT22;5467;59.334;13.512;2022-10-04T01:00:52;4.40;99.90
10828;DHT22;5467;59.334;13.512;2022-10-04T01:03:25;4.30;99.90
10828;DHT22;5467;59.334;13.512;2022-10-04T01:05:56;4.30;99.90
10828;DHT22;5467;59.334;13.512;2022-10-04T01:08:28;4.20;99.90
10828;DHT22;5467;59.334;13.512;2022-10-04T01:11:00;4.10;99.90
10828;DHT22;5467;59.334;13.512;2022-10-04T01:13:30;4.10;99.90
10828;DHT22;5467;59.334;13.512;2022-10-04T01:16:03;4.10;99.90
10828;DHT22;5467;59.334;13.512;2022-10-04T01:18:36;4.10;99.90
10828;DHT22;5467;59.334;13.512;2022-10-04T01:21:06;4.10;99.90
10828;DHT22;5467;59.334;13.512;2022-10-04T01:23:37;4.20;99.90
10828;DHT22;5467;59.334;13.512;2022-10-04T01:29:15;4.20;99.90
10828;DHT22;5467;59.334;13.512;2022-10-04T01:31:44;4.20;99.90
10828;DHT22;5467;59.334;13.512;2022-10-04T01:34:13;4.20;99.90
10828;DHT22;5467;59.334;13.512;2022-10-04T01:36:41;4.20;99.90
10828;DHT22;5467;59.334;13.512;2022-10-04T01:39:10;4.10;99.90
10828;DHT22;5467;59.334;13.512;2022-10-04T01:41:50;4.00;99.90
10828;DHT22;5467;59.334;13.512;2022-10-04T01:44:28;4.10;99.90
10828;DHT22;5467;59.334;13.512;2022-10-04T01:47:00;4.10;99.90
10828;DHT22;5467;59.334;13.512;2022-10-04T01:49:30;4.20;99.90
10828;DHT22;5467;59.334;13.512;2022-10-04T01:52:01;4.20;99.90
10828;DHT22;5467;59.334;13.512;2022-10-04T01:54:36;4.00;99.90
10828;DHT22;5467;59.334;13.512;2022-10-04T01:57:10;3.80;99.90
10828;DHT22;5467;59.334;13.512;2022-10-04T01:59:42;3.80;99.90
10828;DHT22;5467;59.334;13.512;2022-10-04T02:02:18;3.80;99.90
10828;DHT22;5467;59.334;13.512;2022-10-04T02:04:50;3.80;99.90
10828;DHT22;5467;59.334;13.512;2022-10-04T02:07:20;3.80;99.90
10828;DHT22;5467;59.334;13.512;2022-10-04T02:09:53;3.80;99.90
10828;DHT22;5467;59.334;13.512;2022-10-04T02:12:21;3.90;99.90
10828;DHT22;5467;59.334;13.512;2022-10-04T02:14:51;3.90;99.90
10828;DHT22;5467;59.334;13.512;2022-10-04T02:17:20;3.90;99.90
10828;DHT22;5467;59.334;13.512;2022-10-04T02:19:49;3.90;99.90
10828;DHT22;5467;59.334;13.512;2022-10-04T02:22:17;3.90;99.90
10828;DHT22;5467;59.334;13.512;2022-10-04T02:24:48;3.90;99.90
10828;DHT22;5467;59.334;13.512;2022-10-04T02:27:15;3.90;99.90
10828;DHT22;5467;59.334;13.512;2022-10-04T02:29:42;3.90;99.90
10828;DHT22;5467;59.334;13.512;2022-10-04T02:32:10;3.80;99.90
10828;DHT22;5467;59.334;13.512;2022-10-04T02:34:57;3.90;99.90
10828;DHT22;5467;59.334;13.512;2022-10-04T02:37:26;3.80;99.90
10828;DHT22;5467;59.334;13.512;2022-10-04T02:39:58;3.80;99.90
10828;DHT22;5467;59.334;13.512;2022-10-04T02:42:36;3.80;99.90
10828;DHT22;5467;59.334;13.512;2022-10-04T02:45:10;3.80;99.90
10828;DHT22;5467;59.334;13.512;2022-10-04T02:47:43;3.70;99.90
10828;DHT22;5467;59.334;13.512;2022-10-04T02:50:24;3.70;99.90
10828;DHT22;5467;59.334;13.512;2022-10-04T02:52:55;3.70;99.90
10828;DHT22;5467;59.334;13.512;2022-10-04T02:55:26;3.60;99.90
10828;DHT22;5467;59.334;13.512;2022-10-04T02:57:57;3.60;99.90
10828;DHT22;5467;59.334;13.512;2022-10-04T03:00:27;3.60;99.90
10828;DHT22;5467;59.334;13.512;2022-10-04T03:03:14;3.70;99.90
10828;DHT22;5467;59.334;13.512;2022-10-04T03:05:45;3.60;99.90
10828;DHT22;5467;59.334;13.512;2022-10-04T03:08:13;3.50;99.90
10828;DHT22;5467;59.334;13.512;2022-10-04T03:10:43;3.60;99.90
10828;DHT22;5467;59.334;13.512;2022-10-04T03:13:11;3.50;99.90
10828;DHT22;5467;59.334;13.512;2022-10-04T03:15:40;3.50;99.90
10828;DHT22;5467;59.334;13.512;2022-10-04T03:18:08;3.50;99.90
10828;DHT22;5467;59.334;13.512;2022-10-04T03:20:36;3.60;99.90
10828;DHT22;5467;59.334;13.512;2022-10-04T03:23:04;3.60;99.90
10828;DHT22;5467;59.334;13.512;2022-10-04T03:25:43;3.50;99.90
10828;DHT22;5467;59.334;13.512;2022-10-04T03:28:11;3.50;99.90
10828;DHT22;5467;59.334;13.512;2022-10-04T03:30:42;3.50;99.90
10828;DHT22;5467;59.334;13.512;2022-10-04T03:33:18;3.50;99.90
10828;DHT22;5467;59.334;13.512;2022-10-04T03:35:48;3.50;99.90
10828;DHT22;5467;59.334;13.512;2022-10-04T03:38:16;3.50;99.90
10828;DHT22;5467;59.334;13.512;2022-10-04T03:40:50;3.40;99.90
10828;DHT22;5467;59.334;13.512;2022-10-04T03:43:21;3.40;99.90
10828;DHT22;5467;59.334;13.512;2022-10-04T03:45:49;3.40;99.90
10828;DHT22;5467;59.334;13.512;2022-10-04T03:48:24;3.40;99.90
10828;DHT22;5467;59.334;13.512;2022-10-04T03:50:53;3.40;99.90
10828;DHT22;5467;59.334;13.512;2022-10-04T03:53:34;3.40;99.90
10828;DHT22;5467;59.334;13.512;2022-10-04T03:56:11;3.30;99.90
10828;DHT22;5467;59.334;13.512;2022-10-04T03:58:39;3.30;99.90
10828;DHT22;5467;59.334;13.512;2022-10-04T04:01:18;3.30;99.90
10828;DHT22;5467;59.334;13.512;2022-10-04T04:03:56;3.30;99.90
10828;DHT22;5467;59.334;13.512;2022-10-04T04:06:25;3.30;99.90
10828;DHT22;5467;59.334;13.512;2022-10-04T04:08:57;3.40;99.90
10828;DHT22;5467;59.334;13.512;2022-10-04T04:11:27;3.40;99.90
10828;DHT22;5467;59.334;13.512;2022-10-04T04:14:00;3.40;99.90
10828;DHT22;5467;59.334;13.512;2022-10-04T04:16:29;3.40;99.90
10828;DHT22;5467;59.334;13.512;2022-10-04T04:19:00;3.40;99.90
10828;DHT22;5467;59.334;13.512;2022-10-04T04:21:28;3.40;99.90
10828;DHT22;5467;59.334;13.512;2022-10-04T04:23:58;3.30;99.90
10828;DHT22;5467;59.334;13.512;2022-10-04T04:26:33;3.30;99.90
10828;DHT22;5467;59.334;13.512;2022-10-04T04:29:05;3.30;99.90
10828;DHT22;5467;59.334;13.512;2022-10-04T04:31:37;3.30;99.90
10828;DHT22;5467;59.334;13.512;2022-10-04T04:34:15;3.30;99.90
10828;DHT22;5467;59.334;13.512;2022-10-04T04:36:44;3.30;99.90
10828;DHT22;5467;59.334;13.512;2022-10-04T04:39:15;3.30;99.90
10828;DHT22;5467;59.334;13.512;2022-10-04T04:42:11;3.30;99.90
10828;DHT22;5467;59.334;13.512;2022-10-04T04:44:46;3.20;99.90
10828;DHT22;5467;59.334;13.512;2022-10-04T04:47:25;3.00;99.90
10828;DHT22;5467;59.334;13.512;2022-10-04T04:49:54;2.90;99.90
10828;DHT22;5467;59.334;13.512;2022-10-04T04:52:26;2.90;99.90
10828;DHT22;5467;59.334;13.512;2022-10-04T04:54:54;3.10;99.90
10828;DHT22;5467;59.334;13.512;2022-10-04T04:57:23;3.10;99.90
10828;DHT22;5467;59.334;13.512;2022-10-04T04:59:52;3.10;99.90
10828;DHT22;5467;59.334;13.512;2022-10-04T05:02:30;3.20;99.90
10828;DHT22;5467;59.334;13.512;2022-10-04T05:05:17;3.20;99.90
10828;DHT22;5467;59.334;13.512;2022-10-04T05:07:45;3.20;99.90
10828;DHT22;5467;59.334;13.512;2022-10-04T05:10:20;3.20;99.90
10828;DHT22;5467;59.334;13.512;2022-10-04T05:12:49;3.20;99.90
10828;DHT22;5467;59.334;13.512;2022-10-04T05:15:17;3.20;99.90
10828;DHT22;5467;59.334;13.512;2022-10-04T05:17:44;3.20;99.90
10828;DHT22;5467;59.334;13.512;2022-10-04T05:20:13;3.30;99.90
10828;DHT22;5467;59.334;13.512;2022-10-04T05:22:42;3.30;99.90
10828;DHT22;5467;59.334;13.512;2022-10-04T05:25:14;3.30;99.90
10828;DHT22;5467;59.334;13.512;2022-10-04T05:27:44;3.30;99.90
10828;DHT22;5467;59.334;13.512;2022-10-04T05:30:25;3.30;99.90
10828;DHT22;5467;59.334;13.512;2022-10-04T05:32:59;3.30;99.90
10828;DHT22;5467;59.334;13.512;2022-10-04T05:35:28;3.30;99.90
10828;DHT22;5467;59.334;13.512;2022-10-04T05:38:02;3.40;99.90
10828;DHT22;5467;59.334;13.512;2022-10-04T05:40:38;3.50;99.90
10828;DHT22;5467;59.334;13.512;2022-10-04T05:43:20;3.50;99.90
10828;DHT22;5467;59.334;13.512;2022-10-04T05:46:12;3.50;99.90
10828;DHT22;5467;59.334;13.512;2022-10-04T05:48:42;3.50;99.90
10828;DHT22;5467;59.334;13.512;2022-10-04T05:51:14;3.60;99.90
10828;DHT22;5467;59.334;13.512;2022-10-04T05:53:44;3.60;99.90
10828;DHT22;5467;59.334;13.512;2022-10-04T05:59:07;3.70;99.90
10828;DHT22;5467;59.334;13.512;2022-10-04T06:01:45;3.70;99.90
10828;DHT22;5467;59.334;13.512;2022-10-04T06:04:36;3.70;99.90
10828;DHT22;5467;59.334;13.512;2022-10-04T06:07:19;3.70;99.90
10828;DHT22;5467;59.334;13.512;2022-10-04T06:10:39;3.70;99.90
10828;DHT22;5467;59.334;13.512;2022-10-04T06:13:20;3.80;99.90
10828;DHT22;5467;59.334;13.512;2022-10-04T06:16:06;3.90;99.90
10828;DHT22;5467;59.334;13.512;2022-10-04T06:18:53;4.10;99.90
10828;DHT22;5467;59.334;13.512;2022-10-04T06:21:26;4.30;99.90
10828;DHT22;5467;59.334;13.512;2022-10-04T06:23:57;4.40;99.90
10828;DHT22;5467;59.334;13.512;2022-10-04T06:26:29;4.50;99.90
10828;DHT22;5467;59.334;13.512;2022-10-04T06:29:01;4.60;99.90
10828;DHT22;5467;59.334;13.512;2022-10-04T06:31:44;4.80;99.90
10828;DHT22;5467;59.334;13.512;2022-10-04T06:34:27;4.90;99.90
10828;DHT22;5467;59.334;13.512;2022-10-04T06:37:17;4.90;99.90
10828;DHT22;5467;59.334;13.512;2022-10-04T06:39:59;5.00;99.90
10828;DHT22;5467;59.334;13.512;2022-10-04T06:42:51;5.10;99.90
10828;DHT22;5467;59.334;13.512;2022-10-04T06:45:41;5.20;99.90
10828;DHT22;5467;59.334;13.512;2022-10-04T06:48:38;5.40;99.90
10828;DHT22;5467;59.334;13.512;2022-10-04T06:51:16;5.50;99.90
10828;DHT22;5467;59.334;13.512;2022-10-04T06:53:58;5.60;99.90
10828;DHT22;5467;59.334;13.512;2022-10-04T06:56:52;5.80;99.90
10828;DHT22;5467;59.334;13.512;2022-10-04T06:59:28;5.90;99.90
10828;DHT22;5467;59.334;13.512;2022-10-04T07:02:03;6.10;99.90
10828;DHT22;5467;59.334;13.512;2022-10-04T07:04:36;6.40;99.90
10828;DHT22;5467;59.334;13.512;2022-10-04T07:07:13;6.50;99.90
10828;DHT22;5467;59.334;13.512;2022-10-04T07:10:05;6.60;99.90
10828;DHT22;5467;59.334;13.512;2022-10-04T07:12:44;6.80;99.90
10828;DHT22;5467;59.334;13.512;2022-10-04T07:15:18;6.90;99.90
10828;DHT22;5467;59.334;13.512;2022-10-04T07:17:48;6.90;99.90
10828;DHT22;5467;59.334;13.512;2022-10-04T07:20:20;7.10;99.90
10828;DHT22;5467;59.334;13.512;2022-10-04T07:22:54;7.10;99.90
10828;DHT22;5467;59.334;13.512;2022-10-04T07:25:24;7.20;99.90
10828;DHT22;5467;59.334;13.512;2022-10-04T07:27:56;7.30;99.90
10828;DHT22;5467;59.334;13.512;2022-10-04T07:30:42;7.60;99.90
10828;DHT22;5467;59.334;13.512;2022-10-04T07:33:15;7.70;99.90
10828;DHT22;5467;59.334;13.512;2022-10-04T07:35:45;7.80;99.90
10828;DHT22;5467;59.334;13.512;2022-10-04T07:38:18;7.90;99.90
10828;DHT22;5467;59.334;13.512;2022-10-04T07:41:00;8.00;99.90
10828;DHT22;5467;59.334;13.512;2022-10-04T07:43:31;8.10;99.90
10828;DHT22;5467;59.334;13.512;2022-10-04T07:46:05;8.30;99.90
10828;DHT22;5467;59.334;13.512;2022-10-04T07:48:39;8.50;99.90
10828;DHT22;5467;59.334;13.512;2022-10-04T07:51:18;8.60;99.90
10828;DHT22;5467;59.334;13.512;2022-10-04T07:53:49;8.80;99.90
10828;DHT22;5467;59.334;13.512;2022-10-04T07:56:24;9.00;99.90
10828;DHT22;5467;59.334;13.512;2022-10-04T07:59:02;9.20;99.90
10828;DHT22;5467;59.334;13.512;2022-10-04T08:01:35;9.40;99.90
10828;DHT22;5467;59.334;13.512;2022-10-04T08:04:16;9.60;99.90
10828;DHT22;5467;59.334;13.512;2022-10-04T08:06:57;9.90;99.90
10828;DHT22;5467;59.334;13.512;2022-10-04T08:09:40;10.20;99.90
10828;DHT22;5467;59.334;13.512;2022-10-04T08:12:16;10.60;99.90
10828;DHT22;5467;59.334;13.512;2022-10-04T08:14:54;10.80;99.90
10828;DHT22;5467;59.334;13.512;2022-10-04T08:17:37;11.00;99.90
10828;DHT22;5467;59.334;13.512;2022-10-04T08:23:23;11.20;99.90
10828;DHT22;5467;59.334;13.512;2022-10-04T08:26:03;11.20;99.90
10828;DHT22;5467;59.334;13.512;2022-10-04T08:28:41;11.20;99.90
10828;DHT22;5467;59.334;13.512;2022-10-04T08:31:35;11.30;99.90
10828;DHT22;5467;59.334;13.512;2022-10-04T08:34:17;11.20;99.90
10828;DHT22;5467;59.334;13.512;2022-10-04T08:36:58;11.20;99.90
10828;DHT22;5467;59.334;13.512;2022-10-04T08:39:45;11.40;99.90
10828;DHT22;5467;59.334;13.512;2022-10-04T08:55:16;11.60;99.90
10828;DHT22;5467;59.334;13.512;2022-10-04T09:00:54;11.70;99.90
10828;DHT22;5467;59.334;13.512;2022-10-04T09:03:49;11.70;99.90
10828;DHT22;5467;59.334;13.512;2022-10-04T09:06:41;11.60;99.90
10828;DHT22;5467;59.334;13.512;2022-10-04T09:09:54;11.70;99.90
10828;DHT22;5467;59.334;13.512;2022-10-04T09:12:39;11.60;99.90
10828;DHT22;5467;59.334;13.512;2022-10-04T09:18:22;11.50;99.90
10828;DHT22;5467;59.334;13.512;2022-10-04T09:20:56;11.30;99.90
10828;DHT22;5467;59.334;13.512;2022-10-04T09:23:47;11.30;99.90
10828;DHT22;5467;59.334;13.512;2022-10-04T09:26:21;11.30;99.90
10828;DHT22;5467;59.334;13.512;2022-10-04T09:36:06;11.20;99.90
10828;DHT22;5467;59.334;13.512;2022-10-04T09:39:07;11.30;99.90
10828;DHT22;5467;59.334;13.512;2022-10-04T09:44:52;11.20;99.90
10828;DHT22;5467;59.334;13.512;2022-10-04T09:47:33;11.30;99.90
10828;DHT22;5467;59.334;13.512;2022-10-04T09:50:31;11.30;99.90
10828;DHT22;5467;59.334;13.512;2022-10-04T09:53:29;11.40;99.90
10828;DHT22;5467;59.334;13.512;2022-10-04T09:56:32;11.50;99.90
10828;DHT22;5467;59.334;13.512;2022-10-04T09:59:25;11.60;99.90
10828;DHT22;5467;59.334;13.512;2022-10-04T10:05:27;11.50;99.90
10828;DHT22;5467;59.334;13.512;2022-10-04T10:08:04;11.60;99.90
10828;DHT22;5467;59.334;13.512;2022-10-04T10:10:42;11.80;99.90
10828;DHT22;5467;59.334;13.512;2022-10-04T10:13:42;11.90;99.90
10828;DHT22;5467;59.334;13.512;2022-10-04T10:16:36;11.90;99.90
10828;DHT22;5467;59.334;13.512;2022-10-04T10:19:33;12.10;99.90
10828;DHT22;5467;59.334;13.512;2022-10-04T10:22:25;12.20;99.90
10828;DHT22;5467;59.334;13.512;2022-10-04T10:25:08;12.30;99.90
10828;DHT22;5467;59.334;13.512;2022-10-04T10:28:03;12.50;99.90
10828;DHT22;5467;59.334;13.512;2022-10-04T10:30:48;12.50;99.90
10828;DHT22;5467;59.334;13.512;2022-10-04T10:33:34;12.60;99.90
10828;DHT22;5467;59.334;13.512;2022-10-04T10:36:27;12.70;99.90
10828;DHT22;5467;59.334;13.512;2022-10-04T10:39:21;12.70;99.90
10828;DHT22;5467;59.334;13.512;2022-10-04T10:42:09;12.70;99.90
10828;DHT22;5467;59.334;13.512;2022-10-04T10:45:00;12.70;99.90
10828;DHT22;5467;59.334;13.512;2022-10-04T10:47:40;12.70;99.90
10828;DHT22;5467;59.334;13.512;2022-10-04T10:50:41;12.60;99.90
10828;DHT22;5467;59.334;13.512;2022-10-04T10:53:46;12.70;99.90
10828;DHT22;5467;59.334;13.512;2022-10-04T10:56:30;12.70;99.90
10828;DHT22;5467;59.334;13.512;2022-10-04T11:04:59;12.90;99.90
10828;DHT22;5467;59.334;13.512;2022-10-04T11:07:47;12.90;99.90
10828;DHT22;5467;59.334;13.512;2022-10-04T11:20:04;13.40;99.90
10828;DHT22;5467;59.334;13.512;2022-10-04T11:23:03;13.50;99.90
10828;DHT22;5467;59.334;13.512;2022-10-04T11:28:45;13.30;99.90
10828;DHT22;5467;59.334;13.512;2022-10-04T11:31:37;13.40;99.90
10828;DHT22;5467;59.334;13.512;2022-10-04T11:34:31;13.50;99.90
10828;DHT22;5467;59.334;13.512;2022-10-04T11:37:09;13.60;99.90
10828;DHT22;5467;59.334;13.512;2022-10-04T11:39:51;13.50;99.90
10828;DHT22;5467;59.334;13.512;2022-10-04T11:42:32;13.50;99.90
10828;DHT22;5467;59.334;13.512;2022-10-04T11:45:15;13.60;99.90
10828;DHT22;5467;59.334;13.512;2022-10-04T11:47:55;13.70;99.90
10828;DHT22;5467;59.334;13.512;2022-10-04T11:50:50;13.60;99.90
10828;DHT22;5467;59.334;13.512;2022-10-04T11:53:57;13.70;99.90
10828;DHT22;5467;59.334;13.512;2022-10-04T11:56:37;13.70;99.90
10828;DHT22;5467;59.334;13.512;2022-10-04T11:59:24;13.90;99.90
10828;DHT22;5467;59.334;13.512;2022-10-04T12:08:19;13.70;99.90
10828;DHT22;5467;59.334;13.512;2022-10-04T12:11:23;13.80;99.90
10828;DHT22;5467;59.334;13.512;2022-10-04T12:14:01;13.80;99.90
10828;DHT22;5467;59.334;13.512;2022-10-04T12:16:53;13.70;99.90
10828;DHT22;5467;59.334;13.512;2022-10-04T12:19:48;13.80;99.90
10828;DHT22;5467;59.334;13.512;2022-10-04T12:22:42;13.80;99.90
10828;DHT22;5467;59.334;13.512;2022-10-04T12:25:41;13.80;99.90
10828;DHT22;5467;59.334;13.512;2022-10-04T12:28:25;13.70;99.90
10828;DHT22;5467;59.334;13.512;2022-10-04T12:31:09;13.80;99.90
10828;DHT22;5467;59.334;13.512;2022-10-04T12:33:43;13.80;99.90
10828;DHT22;5467;59.334;13.512;2022-10-04T12:39:33;13.80;99.90
10828;DHT22;5467;59.334;13.512;2022-10-04T12:42:19;13.80;99.90
10828;DHT22;5467;59.334;13.512;2022-10-04T12:45:17;13.90;99.90
10828;DHT22;5467;59.334;13.512;2022-10-04T12:48:07;13.90;99.90
10828;DHT22;5467;59.334;13.512;2022-10-04T12:50:52;13.80;99.90
10828;DHT22;5467;59.334;13.512;2022-10-04T12:53:32;13.90;99.90
10828;DHT22;5467;59.334;13.512;2022-10-04T12:56:06;14.00;99.90
10828;DHT22;5467;59.334;13.512;2022-10-04T12:58:51;14.10;99.90
10828;DHT22;5467;59.334;13.512;2022-10-04T13:01:28;14.10;99.90
10828;DHT22;5467;59.334;13.512;2022-10-04T13:10:21;14.20;99.90
10828;DHT22;5467;59.334;13.512;2022-10-04T13:16:05;14.10;99.90
10828;DHT22;5467;59.334;13.512;2022-10-04T13:18:41;14.10;99.90
10828;DHT22;5467;59.334;13.512;2022-10-04T13:21:15;14.20;99.90
10828;DHT22;5467;59.334;13.512;2022-10-04T13:23:57;14.20;99.90
10828;DHT22;5467;59.334;13.512;2022-10-04T13:26:35;14.20;99.90
10828;DHT22;5467;59.334;13.512;2022-10-04T13:29:12;14.20;99.90
10828;DHT22;5467;59.334;13.512;2022-10-04T13:31:47;14.20;99.90
10828;DHT22;5467;59.334;13.512;2022-10-04T13:34:24;14.10;99.90
10828;DHT22;5467;59.334;13.512;2022-10-04T13:37:13;14.10;99.90
10828;DHT22;5467;59.334;13.512;2022-10-04T13:39:50;14.10;99.90
10828;DHT22;5467;59.334;13.512;2022-10-04T13:45:35;14.00;99.90
10828;DHT22;5467;59.334;13.512;2022-10-04T13:48:26;14.00;99.90
10828;DHT22;5467;59.334;13.512;2022-10-04T13:54:15;13.90;99.90
10828;DHT22;5467;59.334;13.512;2022-10-04T13:57:17;13.90;99.90
10828;DHT22;5467;59.334;13.512;2022-10-04T13:59:50;13.70;99.90
10828;DHT22;5467;59.334;13.512;2022-10-04T14:02:35;13.70;99.90
10828;DHT22;5467;59.334;13.512;2022-10-04T14:05:49;13.50;99.90
10828;DHT22;5467;59.334;13.512;2022-10-04T14:09:02;13.40;99.90
10828;DHT22;5467;59.334;13.512;2022-10-04T14:14:54;13.10;99.90
10828;DHT22;5467;59.334;13.512;2022-10-04T14:18:02;13.10;99.90
10828;DHT22;5467;59.334;13.512;2022-10-04T14:21:15;13.00;99.90
10828;DHT22;5467;59.334;13.512;2022-10-04T14:30:04;13.00;99.90
10828;DHT22;5467;59.334;13.512;2022-10-04T14:35:47;13.20;99.90
10828;DHT22;5467;59.334;13.512;2022-10-04T14:38:32;13.30;99.90
10828;DHT22;5467;59.334;13.512;2022-10-04T14:41:36;13.40;99.90
10828;DHT22;5467;59.334;13.512;2022-10-04T14:44:28;13.30;99.90
10828;DHT22;5467;59.334;13.512;2022-10-04T14:47:09;13.40;99.90
10828;DHT22;5467;59.334;13.512;2022-10-04T14:50:06;13.40;99.90
10828;DHT22;5467;59.334;13.512;2022-10-04T14:52:42;13.30;99.90
10828;DHT22;5467;59.334;13.512;2022-10-04T14:55:22;13.30;99.90
10828;DHT22;5467;59.334;13.512;2022-10-04T14:58:00;13.30;99.90
10828;DHT22;5467;59.334;13.512;2022-10-04T15:00:29;13.40;99.90
10828;DHT22;5467;59.334;13.512;2022-10-04T15:03:22;13.40;99.90
10828;DHT22;5467;59.334;13.512;2022-10-04T15:06:10;13.40;99.90
10828;DHT22;5467;59.334;13.512;2022-10-04T15:09:05;13.30;99.90
10828;DHT22;5467;59.334;13.512;2022-10-04T15:11:39;13.30;99.90
10828;DHT22;5467;59.334;13.512;2022-10-04T15:14:29;13.40;99.90
10828;DHT22;5467;59.334;13.512;2022-10-04T15:17:00;13.40;99.90
10828;DHT22;5467;59.334;13.512;2022-10-04T15:19:33;13.40;99.90
10828;DHT22;5467;59.334;13.512;2022-10-04T15:22:06;13.40;99.90
10828;DHT22;5467;59.334;13.512;2022-10-04T15:24:45;13.40;99.90
10828;DHT22;5467;59.334;13.512;2022-10-04T15:27:44;13.50;99.90
10828;DHT22;5467;59.334;13.512;2022-10-04T15:30:35;13.50;99.90
10828;DHT22;5467;59.334;13.512;2022-10-04T15:33:26;13.50;99.90
10828;DHT22;5467;59.334;13.512;2022-10-04T15:36:27;13.40;99.90
10828;DHT22;5467;59.334;13.512;2022-10-04T15:38:56;13.30;99.90
10828;DHT22;5467;59.334;13.512;2022-10-04T15:41:36;13.30;99.90
10828;DHT22;5467;59.334;13.512;2022-10-04T15:44:41;13.30;99.90
10828;DHT22;5467;59.334;13.512;2022-10-04T15:47:16;13.30;99.90
10828;DHT22;5467;59.334;13.512;2022-10-04T15:49:56;13.40;99.90
10828;DHT22;5467;59.334;13.512;2022-10-04T15:52:46;13.50;99.90
10828;DHT22;5467;59.334;13.512;2022-10-04T15:55:29;13.40;99.90
10828;DHT22;5467;59.334;13.512;2022-10-04T15:58:18;13.50;99.90
10828;DHT22;5467;59.334;13.512;2022-10-04T16:01:03;13.40;99.90
10828;DHT22;5467;59.334;13.512;2022-10-04T16:03:38;13.40;99.90
10828;DHT22;5467;59.334;13.512;2022-10-04T16:06:17;13.40;99.90
10828;DHT22;5467;59.334;13.512;2022-10-04T16:09:01;13.40;99.90
10828;DHT22;5467;59.334;13.512;2022-10-04T16:11:49;13.40;99.90
10828;DHT22;5467;59.334;13.512;2022-10-04T16:17:39;13.30;99.90
10828;DHT22;5467;59.334;13.512;2022-10-04T16:20:37;13.30;99.90
10828;DHT22;5467;59.334;13.512;2022-10-04T16:23:37;13.40;99.90
10828;DHT22;5467;59.334;13.512;2022-10-04T16:26:11;13.40;99.90
10828;DHT22;5467;59.334;13.512;2022-10-04T16:29:00;13.40;99.90
10828;DHT22;5467;59.334;13.512;2022-10-04T16:31:49;13.40;99.90
10828;DHT22;5467;59.334;13.512;2022-10-04T16:34:37;13.30;99.90
10828;DHT22;5467;59.334;13.512;2022-10-04T16:37:24;13.30;99.90
10828;DHT22;5467;59.334;13.512;2022-10-04T16:39:56;13.40;99.90
10828;DHT22;5467;59.334;13.512;2022-10-04T16:42:31;13.40;99.90
10828;DHT22;5467;59.334;13.512;2022-10-04T16:45:24;13.40;99.90
10828;DHT22;5467;59.334;13.512;2022-10-04T16:47:53;13.40;99.90
10828;DHT22;5467;59.334;13.512;2022-10-04T16:50:47;13.40;99.90
10828;DHT22;5467;59.334;13.512;2022-10-04T16:53:22;13.40;99.90
10828;DHT22;5467;59.334;13.512;2022-10-04T16:55:56;13.50;99.90
10828;DHT22;5467;59.334;13.512;2022-10-04T16:58:50;13.40;99.90
10828;DHT22;5467;59.334;13.512;2022-10-04T17:01:39;13.30;99.90
10828;DHT22;5467;59.334;13.512;2022-10-04T17:07:21;13.30;99.90
10828;DHT22;5467;59.334;13.512;2022-10-04T17:09:53;13.30;99.90
10828;DHT22;5467;59.334;13.512;2022-10-04T17:12:26;13.30;99.90
10828;DHT22;5467;59.334;13.512;2022-10-04T17:15:08;13.30;99.90
10828;DHT22;5467;59.334;13.512;2022-10-04T17:17:47;13.40;99.90
10828;DHT22;5467;59.334;13.512;2022-10-04T17:20:26;13.40;99.90
10828;DHT22;5467;59.334;13.512;2022-10-04T17:23:16;13.40;99.90
10828;DHT22;5467;59.334;13.512;2022-10-04T17:25:52;13.40;99.90
10828;DHT22;5467;59.334;13.512;2022-10-04T17:28:26;13.50;99.90
10828;DHT22;5467;59.334;13.512;2022-10-04T17:31:00;13.40;99.90
10828;DHT22;5467;59.334;13.512;2022-10-04T17:33:39;13.40;99.90
10828;DHT22;5467;59.334;13.512;2022-10-04T17:36:23;13.40;99.90
10828;DHT22;5467;59.334;13.512;2022-10-04T17:38:59;13.50;99.90
10828;DHT22;5467;59.334;13.512;2022-10-04T17:41:41;13.40;99.90
10828;DHT22;5467;59.334;13.512;2022-10-04T17:44:29;13.40;99.90
10828;DHT22;5467;59.334;13.512;2022-10-04T17:47:03;13.40;99.90
10828;DHT22;5467;59.334;13.512;2022-10-04T17:49:42;13.40;99.90
10828;DHT22;5467;59.334;13.512;2022-10-04T17:52:39;13.40;99.90
10828;DHT22;5467;59.334;13.512;2022-10-04T17:55:28;13.30;99.90
10828;DHT22;5467;59.334;13.512;2022-10-04T17:58:02;13.40;99.90
10828;DHT22;5467;59.334;13.512;2022-10-04T18:00:49;13.40;99.90
10828;DHT22;5467;59.334;13.512;2022-10-04T18:03:18;13.40;99.90
10828;DHT22;5467;59.334;13.512;2022-10-04T18:05:50;13.40;99.90
10828;DHT22;5467;59.334;13.512;2022-10-04T18:08:33;13.30;99.90
10828;DHT22;5467;59.334;13.512;2022-10-04T18:11:04;13.30;99.90
10828;DHT22;5467;59.334;13.512;2022-10-04T18:13:35;13.40;99.90
10828;DHT22;5467;59.334;13.512;2022-10-04T18:16:13;13.30;99.90
10828;DHT22;5467;59.334;13.512;2022-10-04T18:18:42;13.30;99.90
10828;DHT22;5467;59.334;13.512;2022-10-04T18:21:23;13.30;99.90
10828;DHT22;5467;59.334;13.512;2022-10-04T18:23:58;13.40;99.90
10828;DHT22;5467;59.334;13.512;2022-10-04T18:26:28;13.30;99.90
10828;DHT22;5467;59.334;13.512;2022-10-04T18:28:57;13.30;99.90
10828;DHT22;5467;59.334;13.512;2022-10-04T18:31:31;13.40;99.90
10828;DHT22;5467;59.334;13.512;2022-10-04T18:34:02;13.30;99.90
10828;DHT22;5467;59.334;13.512;2022-10-04T18:36:50;13.30;99.90
10828;DHT22;5467;59.334;13.512;2022-10-04T18:39:22;13.30;99.90
10828;DHT22;5467;59.334;13.512;2022-10-04T18:41:57;13.30;99.90
10828;DHT22;5467;59.334;13.512;2022-10-04T18:44:27;13.40;99.90
10828;DHT22;5467;59.334;13.512;2022-10-04T18:46:56;13.40;99.90